Time;durP1;ratioP1;P1;durP2;ratioP2;P2;SDS_P1;SDS_P2;PMS_P1;PMS_P2;Temp;Humidity;BMP_temperature;BMP_pressure;BME280_temperature;BME280_humidity;BME280_pressure;Samples;Min_cycle;Max_cycle;Signal;HPM_P1;HPM_P2
2023/02/01 00:02:15;;;;;;;4.57;0.50;;;2.30;99.90;;;;;;2603430;54;20849;31
2023/02/01 00:04:51;;;;;;;4.00;0.40;;;2.30;99.90;;;;;;2603299;54;20860;31
2023/02/01 00:07:31;;;;;;;5.18;0.77;;;2.30;99.90;;;;;;2603377;54;20085;31
2023/02/01 00:10:10;;;;;;;3.90;0.40;;;2.30;99.90;;;;;;2621992;46;20113;31
2023/02/01 00:13:37;;;;;;;2.43;0.50;;;2.30;99.90;;;;;;2603372;54;20847;31
2023/02/01 00:16:49;;;;;;;4.43;0.70;;;2.20;99.90;;;;;;2603410;54;20070;31
2023/02/01 00:19:40;;;;;;;3.60;0.80;;;2.30;99.90;;;;;;2621649;46;19953;31
2023/02/01 00:34:08;;;;;;;7.57;0.70;;;2.20;99.90;;;;;;2603479;54;20923;31
2023/02/01 00:37:08;;;;;;;4.03;1.13;;;2.20;99.90;;;;;;2603196;54;21126;31
2023/02/01 00:39:49;;;;;;;6.93;1.33;;;2.20;99.90;;;;;;2603352;54;20907;31
2023/02/01 00:42:27;;;;;;;5.45;0.70;;;2.30;99.90;;;;;;2603324;54;20033;31
2023/02/01 00:48:17;;;;;;;4.43;1.00;;;2.30;99.90;;;;;;2603345;54;20865;31
2023/02/01 00:50:57;;;;;;;3.43;1.00;;;2.40;99.90;;;;;;2622023;46;20031;31
2023/02/01 00:54:05;;;;;;;;;;;;;;;;;;;;;
2023/02/01 00:56:42;;;;;;;8.40;1.93;;;2.40;99.90;;;;;;2602643;54;20859;31
2023/02/01 00:59:31;;;;;;;4.70;0.85;;;2.60;99.90;;;;;;2602286;54;21211;31
2023/02/01 01:05:12;;;;;;;8.07;2.42;;;2.60;99.90;;;;;;2603740;54;21800;31
2023/02/01 01:08:12;;;;;;;4.10;1.42;;;2.60;99.90;;;;;;2602954;54;20071;31
2023/02/01 01:45:33;;;;;;;6.95;1.73;;;2.60;99.90;;;;;;2620466;46;20940;31
2023/02/01 01:54:33;;;;;;;3.97;0.85;;;2.50;99.90;;;;;;2603271;54;20842;31
2023/02/01 01:57:49;;;;;;;6.32;0.60;;;2.50;99.90;;;;;;2603375;54;20031;31
2023/02/01 02:03:47;;;;;;;4.45;0.77;;;2.50;99.90;;;;;;2620915;47;20018;31
2023/02/01 02:21:52;;;;;;;4.75;1.30;;;2.50;99.90;;;;;;2603822;54;20034;31
2023/02/01 02:24:57;;;;;;;6.87;1.30;;;2.50;99.90;;;;;;2603511;54;20045;31
2023/02/01 02:27:49;;;;;;;11.48;1.42;;;2.60;99.90;;;;;;2603877;54;20874;31
2023/02/01 02:30:46;;;;;;;5.85;1.30;;;2.60;99.90;;;;;;2603726;54;20042;31
2023/02/01 02:34:03;;;;;;;7.90;1.40;;;2.60;99.90;;;;;;2622335;46;19935;31
2023/02/01 02:36:52;;;;;;;10.23;1.40;;;2.70;99.90;;;;;;2603579;54;20042;31
2023/02/01 02:39:46;;;;;;;13.80;2.58;;;2.80;99.90;;;;;;2720681;39;22498;31
2023/02/01 02:48:44;;;;;;;8.63;1.80;;;2.90;99.90;;;;;;2603726;54;21100;31
2023/02/01 03:06:12;;;;;;;16.27;2.50;;;3.10;99.90;;;;;;2603747;54;20140;31
2023/02/01 03:09:00;;;;;;;15.02;1.88;;;3.10;99.90;;;;;;2603576;54;20026;31
2023/02/01 03:15:13;;;;;;;14.60;2.75;;;3.20;99.90;;;;;;2603736;54;20048;31
2023/02/01 03:18:15;;;;;;;17.02;2.20;;;3.20;99.90;;;;;;2603745;54;20026;31
2023/02/01 03:21:12;;;;;;;10.75;2.55;;;3.20;99.90;;;;;;2603681;54;19965;31
2023/02/01 03:26:48;;;;;;;10.52;1.83;;;3.20;99.90;;;;;;2603575;54;20070;31
2023/02/01 03:33:29;;;;;;;18.33;2.45;;;3.20;99.90;;;;;;2622106;46;20927;31
2023/02/01 03:36:24;;;;;;;15.10;1.95;;;3.20;99.90;;;;;;2603650;54;20053;31
2023/02/01 03:39:25;;;;;;;15.50;2.55;;;3.20;99.90;;;;;;2603460;54;20040;31
2023/02/01 03:42:10;;;;;;;13.52;2.40;;;3.20;99.90;;;;;;2605246;46;20103;31
2023/02/01 03:45:15;;;;;;;11.13;1.85;;;3.20;99.90;;;;;;2621884;46;20026;31
2023/02/01 03:48:21;;;;;;;11.98;1.90;;;3.20;99.90;;;;;;2603759;54;20829;31
2023/02/01 03:51:01;;;;;;;12.20;2.30;;;3.10;99.90;;;;;;2603542;54;20816;31
2023/02/01 03:54:17;;;;;;;8.68;2.70;;;3.10;99.90;;;;;;2622353;46;20036;31
2023/02/01 03:57:15;;;;;;;16.03;2.83;;;3.10;99.90;;;;;;2603490;54;20883;31
2023/02/01 03:59:52;;;;;;;13.75;2.05;;;3.10;99.90;;;;;;2621630;46;21080;31
2023/02/01 04:02:32;;;;;;;9.95;2.15;;;3.10;99.90;;;;;;2603374;54;20112;31
2023/02/01 04:05:11;;;;;;;7.95;1.80;;;3.00;99.90;;;;;;2603653;54;20026;31
2023/02/01 04:07:59;;;;;;;10.33;2.20;;;3.00;99.90;;;;;;2603330;54;20030;31
2023/02/01 04:10:43;;;;;;;11.35;3.70;;;3.00;99.90;;;;;;2603490;46;20042;31
2023/02/01 04:13:41;;;;;;;8.55;1.80;;;3.00;99.90;;;;;;2602656;54;20839;31
2023/02/01 04:16:26;;;;;;;9.95;2.45;;;3.10;99.90;;;;;;2603702;54;20026;31
2023/02/01 04:19:00;;;;;;;9.93;1.90;;;3.00;99.90;;;;;;2603472;54;20852;31
2023/02/01 04:27:38;;;;;;;13.67;2.13;;;3.00;99.90;;;;;;2603413;54;20022;31
2023/02/01 04:30:30;;;;;;;12.98;2.83;;;3.00;99.90;;;;;;2603235;54;20038;31
2023/02/01 04:33:24;;;;;;;12.68;2.53;;;3.00;99.90;;;;;;2621949;46;20131;31
2023/02/01 04:36:25;;;;;;;17.08;2.38;;;3.00;99.90;;;;;;2603439;54;20092;31
2023/02/01 04:39:03;;;;;;;14.00;2.90;;;3.00;99.90;;;;;;2621137;46;20035;31
2023/02/01 04:41:42;;;;;;;11.20;2.20;;;3.00;99.90;;;;;;2602532;54;20030;31
2023/02/01 04:44:23;;;;;;;9.50;2.20;;;3.00;99.90;;;;;;2603436;54;20064;31
2023/02/01 04:46:59;;;;;;;13.70;2.20;;;3.00;99.90;;;;;;2621647;46;20027;31
2023/02/01 04:49:50;;;;;;;10.25;2.10;;;3.00;99.90;;;;;;2603308;54;20052;31
2023/02/01 04:52:30;;;;;;;12.70;2.40;;;3.00;99.90;;;;;;2603163;54;20148;31
2023/02/01 04:55:34;;;;;;;12.60;2.10;;;3.00;99.90;;;;;;2602475;54;20882;31
2023/02/01 05:01:12;;;;;;;9.70;2.60;;;3.10;99.90;;;;;;2603067;54;20978;31
2023/02/01 05:06:59;;;;;;;9.90;2.90;;;3.20;99.90;;;;;;2603125;54;20026;31
2023/02/01 05:10:13;;;;;;;13.35;2.45;;;3.20;99.90;;;;;;2602994;54;20058;31
2023/02/01 05:18:47;;;;;;;13.43;2.22;;;3.40;99.90;;;;;;2602496;54;20915;31
2023/02/01 05:24:33;;;;;;;;;;;;;;;;;;;;;
2023/02/01 05:36:53;;;;;;;;;;;;;;;;;;;;;
2023/02/01 05:42:59;;;;;;;13.75;2.50;;;3.60;99.90;;;;;;2603096;54;20024;31
2023/02/01 05:45:42;;;;;;;12.65;2.72;;;3.60;99.90;;;;;;2603174;54;20037;31
2023/02/01 05:51:27;;;;;;;13.50;2.80;;;3.50;99.90;;;;;;2621251;46;20865;31
2023/02/01 05:56:57;;;;;;;8.55;1.42;;;3.50;99.90;;;;;;2620939;46;20022;31
2023/02/01 05:59:50;;;;;;;11.52;4.25;;;3.50;99.90;;;;;;2720003;39;20465;31
2023/02/01 06:02:29;;;;;;;9.75;1.90;;;3.50;99.90;;;;;;2602931;54;20953;31
2023/02/01 06:17:52;;;;;;;10.45;2.13;;;3.70;99.90;;;;;;2602389;54;20357;31
2023/02/01 06:21:04;;;;;;;11.35;2.35;;;3.70;99.90;;;;;;2602459;54;20022;31
2023/02/01 06:23:43;;;;;;;10.38;2.08;;;3.70;99.90;;;;;;2602969;54;20915;31
2023/02/01 07:30:50;;;;;;;18.67;8.57;;;4.10;99.90;;;;;;2927061;46;20011;31
2023/02/01 07:45:57;;;;;;;13.10;2.80;;;4.20;99.90;;;;;;2629545;46;19930;31
2023/02/01 07:48:48;;;;;;;9.05;2.58;;;4.20;99.90;;;;;;2603551;54;20029;31
2023/02/01 07:51:35;;;;;;;8.10;1.80;;;4.20;99.90;;;;;;2603781;54;20018;31
2023/02/01 07:55:07;;;;;;;15.07;2.17;;;4.20;99.90;;;;;;2603806;54;20022;31
2023/02/01 08:03:40;;;;;;;8.00;2.27;;;4.30;99.90;;;;;;2603260;54;20949;31
2023/02/01 08:06:42;;;;;;;13.02;3.47;;;4.30;99.90;;;;;;2603335;54;20122;31
2023/02/01 08:11:55;;;;;;;10.95;2.50;;;4.40;99.90;;;;;;2603236;54;20116;31
2023/02/01 08:17:28;;;;;;;11.67;2.50;;;4.50;99.90;;;;;;2602565;54;20870;31
2023/02/01 08:20:14;;;;;;;10.15;2.20;;;4.60;99.90;;;;;;2603355;54;20244;31
2023/02/01 08:22:49;;;;;;;10.60;2.70;;;4.60;99.90;;;;;;2701853;39;20588;31
2023/02/01 08:25:34;;;;;;;9.55;2.20;;;4.60;99.90;;;;;;2701848;39;20462;31
2023/02/01 08:28:13;;;;;;;13.07;2.30;;;4.60;99.90;;;;;;2603421;54;20883;31
2023/02/01 08:30:53;;;;;;;14.95;2.40;;;4.70;99.90;;;;;;2621695;46;20125;31
2023/02/01 08:33:31;;;;;;;13.73;2.58;;;4.80;99.90;;;;;;2621890;46;20053;31
2023/02/01 08:36:14;;;;;;;19.20;2.78;;;4.90;99.90;;;;;;2701799;39;20561;31
2023/02/01 08:39:23;;;;;;;13.85;2.88;;;5.00;99.90;;;;;;2603426;54;20744;31
2023/02/01 08:44:51;;;;;;;14.02;2.95;;;5.00;99.90;;;;;;2603449;54;20022;31
2023/02/01 08:47:30;;;;;;;14.55;2.78;;;5.00;99.90;;;;;;2602568;54;19961;31
2023/02/01 08:50:12;;;;;;;10.18;2.72;;;5.00;99.90;;;;;;2603300;54;20026;31
2023/02/01 08:53:00;;;;;;;12.43;2.72;;;5.00;99.90;;;;;;2603443;54;20042;31
2023/02/01 08:55:40;;;;;;;12.02;2.70;;;4.90;99.90;;;;;;2603374;54;20839;31
2023/02/01 08:58:19;;;;;;;13.00;2.60;;;4.90;99.90;;;;;;2603189;54;20869;31
2023/02/01 09:00:55;;;;;;;9.50;3.50;;;4.90;99.90;;;;;;2603492;54;20026;31
2023/02/01 09:03:32;;;;;;;13.25;2.40;;;4.90;99.90;;;;;;2603181;54;20060;31
2023/02/01 09:06:10;;;;;;;12.63;2.70;;;4.80;99.90;;;;;;2603396;54;20026;31
2023/02/01 09:08:55;;;;;;;7.83;3.17;;;4.80;99.90;;;;;;2603207;54;20034;31
2023/02/01 09:11:32;;;;;;;;;;;4.80;99.90;;;;;;2603257;54;20258;31
2023/02/01 09:20:23;;;;;;;13.07;3.87;;;4.70;99.90;;;;;;2602582;54;20900;31
2023/02/01 09:41:20;;;;;;;9.85;2.40;;;5.40;99.90;;;;;;2603047;54;20033;31
2023/02/01 09:44:02;;;;;;;8.07;2.10;;;5.60;99.90;;;;;;2603282;54;20030;31
2023/02/01 09:46:38;;;;;;;4.95;1.92;;;5.70;99.90;;;;;;2603099;54;20022;31
2023/02/01 09:49:21;;;;;;;10.52;1.90;;;5.70;99.90;;;;;;2603202;54;20030;31
2023/02/01 09:52:00;;;;;;;11.35;2.30;;;5.80;99.90;;;;;;2603175;54;20860;31
2023/02/01 09:57:15;;;;;;;7.40;2.13;;;5.80;99.90;;;;;;2621556;46;20048;31
2023/02/01 10:00:03;;;;;;;7.18;2.20;;;5.80;99.90;;;;;;2603032;54;20123;31
2023/02/01 10:03:06;;;;;;;5.97;2.15;;;5.70;99.90;;;;;;2603130;54;20026;31
2023/02/01 10:08:49;;;;;;;9.75;2.20;;;5.70;99.90;;;;;;2602894;54;20026;31
2023/02/01 10:14:10;;;;;;;6.80;2.35;;;5.70;99.90;;;;;;2621371;47;20041;31
2023/02/01 10:16:51;;;;;;;7.50;2.35;;;5.70;99.90;;;;;;2621345;47;20140;31
2023/02/01 10:19:56;;;;;;;8.05;2.03;;;5.70;99.90;;;;;;2602925;54;20037;31
2023/02/01 10:23:12;;;;;;;7.10;2.28;;;5.60;99.90;;;;;;2602744;54;20053;31
2023/02/01 10:26:13;;;;;;;8.82;2.20;;;5.60;99.90;;;;;;2602648;54;20025;31
2023/02/01 10:29:08;;;;;;;6.00;2.00;;;5.70;99.90;;;;;;2621528;47;20089;31
2023/02/01 10:31:55;;;;;;;5.82;2.10;;;5.70;99.90;;;;;;2621679;47;20093;31
2023/02/01 10:34:45;;;;;;;7.05;1.60;;;5.60;99.90;;;;;;2602987;54;20757;31
2023/02/01 10:37:33;;;;;;;9.02;1.90;;;5.60;99.90;;;;;;2719751;39;20595;31
2023/02/01 10:40:13;;;;;;;;;;;5.60;99.90;;;;;;2773499;31;21321;31
2023/02/01 10:42:51;;;;;;;8.60;2.00;;;5.50;99.90;;;;;;2603650;54;20652;31
2023/02/01 10:45:32;;;;;;;9.90;2.40;;;5.50;99.90;;;;;;2603760;54;20797;31
2023/02/01 10:48:17;;;;;;;10.53;2.40;;;5.50;99.90;;;;;;2603622;54;20045;31
2023/02/01 10:50:56;;;;;;;6.25;2.60;;;5.50;99.90;;;;;;2702442;39;20693;31
2023/02/01 10:53:38;;;;;;;7.35;2.60;;;5.40;99.90;;;;;;2603634;54;20085;31
2023/02/01 11:15:40;;;;;;;9.15;2.78;;;5.20;99.90;;;;;;2622424;46;20258;31
2023/02/01 11:18:43;;;;;;;13.77;4.35;;;5.20;99.90;;;;;;2611558;46;20861;31
2023/02/01 11:59:32;;;;;;;8.50;3.70;;;5.00;99.90;;;;;;2602624;54;20873;31
2023/02/01 12:02:21;;;;;;;8.25;2.80;;;5.00;99.90;;;;;;2603581;54;20762;31
2023/02/01 12:05:32;;;;;;;9.13;2.70;;;4.90;99.90;;;;;;2603627;54;20023;31
2023/02/01 12:08:09;;;;;;;5.55;2.05;;;4.80;99.90;;;;;;2603567;54;20826;31
2023/02/01 12:10:51;;;;;;;7.28;2.55;;;4.80;99.90;;;;;;2621813;46;20030;31
2023/02/01 12:13:40;;;;;;;11.43;4.43;;;4.70;99.90;;;;;;2603473;54;20549;31
2023/02/01 12:16:34;;;;;;;7.60;3.17;;;4.70;99.90;;;;;;2603501;54;20027;31
2023/02/01 12:19:21;;;;;;;5.18;2.22;;;4.70;99.90;;;;;;2603472;54;20896;31
2023/02/01 12:21:58;;;;;;;8.25;2.83;;;4.70;99.90;;;;;;2603194;54;20033;31
2023/02/01 12:25:00;;;;;;;6.85;2.65;;;4.70;99.90;;;;;;2603251;54;20026;31
2023/02/01 12:27:54;;;;;;;4.40;2.40;;;4.70;99.90;;;;;;2701808;39;20550;31
2023/02/01 12:30:59;;;;;;;8.40;3.45;;;4.80;99.90;;;;;;2603224;54;20034;31
2023/02/01 12:34:00;;;;;;;5.28;1.90;;;4.90;99.90;;;;;;2603192;54;20879;31
2023/02/01 12:39:44;;;;;;;4.30;1.58;;;4.90;99.90;;;;;;2720530;39;20466;31
2023/02/01 12:43:17;;;;;;;4.90;1.85;;;5.00;99.90;;;;;;2603318;54;20104;31
2023/02/01 12:46:04;;;;;;;5.63;1.95;;;4.80;99.90;;;;;;2621756;46;20055;31
2023/02/01 12:54:25;;;;;;;5.97;2.20;;;4.90;99.90;;;;;;2621653;46;20037;31
2023/02/01 12:57:05;;;;;;;6.00;2.15;;;4.80;99.90;;;;;;2701745;39;20500;31
2023/02/01 12:59:50;;;;;;;5.28;2.33;;;4.80;99.90;;;;;;2603219;54;20077;31
2023/02/01 13:02:46;;;;;;;4.00;1.80;;;4.80;99.90;;;;;;2603060;54;20823;31
2023/02/01 13:05:31;;;;;;;3.85;2.28;;;4.70;99.90;;;;;;2621689;46;20034;31
2023/02/01 13:08:14;;;;;;;6.00;2.60;;;4.60;99.90;;;;;;2603246;54;20060;31
2023/02/01 13:23:55;;;;;;;5.90;2.00;;;4.60;99.90;;;;;;2602782;54;20075;31
2023/02/01 13:26:44;;;;;;;5.53;1.83;;;4.60;99.90;;;;;;2714649;39;21459;31
2023/02/01 13:29:39;;;;;;;9.18;2.28;;;4.60;99.90;;;;;;2603218;54;20850;31
2023/02/01 13:32:47;;;;;;;5.70;2.10;;;4.60;99.90;;;;;;2603133;54;20027;31
2023/02/01 13:38:42;;;;;;;5.13;2.17;;;4.60;99.90;;;;;;2603120;54;20085;31
2023/02/01 13:41:41;;;;;;;4.35;1.50;;;4.60;99.90;;;;;;2603264;54;20910;31
2023/02/01 13:47:43;;;;;;;4.43;1.92;;;4.60;99.90;;;;;;2720230;39;21425;31
2023/02/01 13:50:26;;;;;;;4.55;1.60;;;4.60;99.90;;;;;;2605184;46;20046;31
2023/02/01 13:56:07;;;;;;;9.65;2.05;;;4.60;99.90;;;;;;2621570;46;20046;31
2023/02/01 13:58:48;;;;;;;6.47;1.90;;;4.70;99.90;;;;;;2701668;39;20548;31
2023/02/01 14:01:48;;;;;;;5.87;1.30;;;4.70;99.90;;;;;;2603108;54;20127;31
2023/02/01 14:05:00;;;;;;;;;;;4.70;99.90;;;;;;2621298;47;20035;31
2023/02/01 14:08:18;;;;;;;5.72;1.40;;;4.90;99.90;;;;;;2602887;54;20801;31
2023/02/01 14:10:57;;;;;;;8.10;1.92;;;4.90;99.90;;;;;;2602908;54;20050;31
2023/02/01 14:13:45;;;;;;;3.95;1.55;;;5.00;99.90;;;;;;2620844;47;20025;31
2023/02/01 14:16:29;;;;;;;4.30;1.00;;;5.00;99.90;;;;;;2603526;54;20037;31
2023/02/01 14:19:20;;;;;;;6.13;1.80;;;5.00;99.90;;;;;;2622348;46;20050;31
2023/02/01 14:22:06;;;;;;;3.13;1.33;;;5.00;99.90;;;;;;2603838;54;20894;31
2023/02/01 14:33:24;;;;;;;3.13;1.37;;;4.70;99.90;;;;;;2603825;54;20026;31
2023/02/01 14:36:16;;;;;;;6.45;1.30;;;4.70;99.90;;;;;;2603740;54;20262;31
2023/02/01 14:39:01;;;;;;;5.30;2.40;;;4.60;99.90;;;;;;2622112;46;20905;31
2023/02/01 14:41:41;;;;;;;5.25;1.77;;;4.60;99.90;;;;;;2603517;54;20026;31
2023/02/01 14:44:31;;;;;;;4.53;1.83;;;4.60;99.90;;;;;;2603611;54;20870;31
2023/02/01 14:47:28;;;;;;;5.43;1.90;;;4.60;99.90;;;;;;2604021;54;20075;31
2023/02/01 14:50:08;;;;;;;7.05;1.75;;;4.60;99.90;;;;;;2603665;54;20242;31
2023/02/01 14:56:38;;;;;;;7.65;2.13;;;4.50;99.90;;;;;;2621806;46;20081;31
2023/02/01 14:59:32;;;;;;;13.15;3.22;;;4.50;99.90;;;;;;2603656;54;20831;31
2023/02/01 15:02:20;;;;;;;9.38;2.08;;;4.50;99.90;;;;;;2603885;54;20903;31
2023/02/01 15:07:51;;;;;;;8.25;2.47;;;4.50;99.90;;;;;;2607426;46;21091;31
2023/02/01 15:14:08;;;;;;;7.95;2.25;;;4.40;99.90;;;;;;2603705;54;20033;31
2023/02/01 15:19:51;;;;;;;6.83;2.53;;;4.40;99.90;;;;;;2622174;46;20656;31
2023/02/01 15:25:53;;;;;;;5.57;2.30;;;4.30;99.90;;;;;;2603577;54;20026;31
2023/02/01 16:56:41;;;;;;;11.90;4.10;;;4.00;99.90;;;;;;2600737;54;20127;31
2023/02/01 17:24:13;;;;;;;11.55;5.07;;;3.80;99.90;;;;;;2620478;46;20831;31
2023/02/01 17:40:18;;;;;;;10.27;4.40;;;3.60;99.90;;;;;;2603126;54;19980;31
2023/02/01 17:48:45;;;;;;;12.30;5.97;;;3.50;99.90;;;;;;2603154;54;20030;31
2023/02/01 17:55:56;;;;;;;17.30;6.35;;;3.50;99.90;;;;;;2603191;54;20034;31
2023/02/01 18:04:51;;;;;;;14.03;6.80;;;3.50;99.90;;;;;;2602741;47;20093;31
2023/02/01 18:35:58;;;;;;;17.02;5.05;;;3.70;99.90;;;;;;2600136;54;20883;31
2023/02/01 18:38:50;;;;;;;12.10;4.65;;;3.80;99.90;;;;;;2700303;39;22312;31
2023/02/01 18:42:06;;;;;;;10.63;3.95;;;3.80;99.90;;;;;;2602181;54;20026;31
2023/02/01 18:50:59;;;;;;;12.17;4.37;;;3.80;99.90;;;;;;2602820;54;20910;31
2023/02/01 18:53:39;;;;;;;13.23;4.68;;;3.80;99.90;;;;;;2602708;54;20054;31
2023/02/01 18:56:26;;;;;;;15.70;4.85;;;3.80;99.90;;;;;;2602596;54;20817;31
2023/02/01 18:59:16;;;;;;;10.63;4.60;;;3.80;99.90;;;;;;2602908;54;20026;31
2023/02/01 19:01:58;;;;;;;10.70;3.73;;;3.80;99.90;;;;;;2603610;54;20886;31
2023/02/01 19:04:43;;;;;;;9.83;4.63;;;3.80;99.90;;;;;;2603715;54;21225;31
2023/02/01 19:07:24;;;;;;;16.08;5.43;;;3.90;99.90;;;;;;2603468;54;20328;31
2023/02/01 19:13:30;;;;;;;11.40;4.83;;;3.90;99.90;;;;;;2603422;54;20034;31
2023/02/01 19:16:08;;;;;;;8.50;3.30;;;3.90;99.90;;;;;;2621994;46;20105;31
2023/02/01 19:21:37;;;;;;;13.85;6.10;;;3.90;99.90;;;;;;2622166;46;20053;31
2023/02/01 19:24:15;;;;;;;10.77;3.95;;;3.90;99.90;;;;;;2603621;54;20018;31
2023/02/01 19:26:53;;;;;;;;;;;3.90;99.90;;;;;;2603889;54;20846;31
2023/02/01 19:32:48;;;;;;;5.88;2.75;;;3.90;99.90;;;;;;2603900;54;20254;31
2023/02/01 19:35:28;;;;;;;6.57;2.70;;;3.90;99.90;;;;;;2603767;54;20876;31
2023/02/01 19:38:10;;;;;;;8.98;3.20;;;3.90;99.90;;;;;;2603506;54;21388;31
2023/02/01 19:43:35;;;;;;;5.72;2.85;;;4.00;99.90;;;;;;2603555;54;20030;31
2023/02/01 19:46:12;;;;;;;7.07;3.50;;;4.00;99.90;;;;;;2603661;54;20053;31
2023/02/01 19:48:55;;;;;;;5.38;2.30;;;4.00;99.90;;;;;;2603689;54;20951;31
2023/02/01 19:51:41;;;;;;;6.25;2.40;;;4.00;99.90;;;;;;2603773;54;20664;31
2023/02/01 20:10:18;;;;;;;4.47;1.77;;;3.90;99.90;;;;;;2621679;46;20243;31
2023/02/01 20:12:55;;;;;;;5.20;2.60;;;3.80;99.90;;;;;;2621656;46;20033;31
2023/02/01 20:15:32;;;;;;;7.13;2.38;;;3.70;99.90;;;;;;2602728;54;20363;31
2023/02/01 20:18:23;;;;;;;4.05;2.40;;;3.70;99.90;;;;;;2621275;46;20845;31
2023/02/01 20:21:11;;;;;;;7.03;2.70;;;3.60;99.90;;;;;;2603428;54;20027;31
2023/02/01 20:23:50;;;;;;;4.05;1.90;;;3.60;99.90;;;;;;2603318;54;20553;31
2023/02/01 20:26:34;;;;;;;3.05;1.92;;;3.50;99.90;;;;;;2603080;54;20041;31
2023/02/01 20:29:26;;;;;;;3.85;1.90;;;3.40;99.90;;;;;;2621987;46;20033;31
2023/02/01 20:32:26;;;;;;;1.70;1.02;;;3.30;99.90;;;;;;2603555;54;20054;31
2023/02/01 20:35:27;;;;;;;4.35;1.10;;;3.20;99.90;;;;;;2603415;54;20087;31
2023/02/01 20:38:08;;;;;;;3.83;1.52;;;3.10;99.90;;;;;;2603262;54;20081;31
2023/02/01 20:40:55;;;;;;;5.05;1.80;;;3.00;99.90;;;;;;2603381;54;20026;31
2023/02/01 20:43:31;;;;;;;5.90;2.03;;;3.00;99.90;;;;;;2622083;46;20030;31
2023/02/01 20:49:39;;;;;;;5.15;1.75;;;2.90;99.90;;;;;;2603268;54;20093;31
2023/02/01 20:52:25;;;;;;;4.70;2.20;;;2.90;99.90;;;;;;2603067;54;20728;31
2023/02/01 20:55:05;;;;;;;5.93;2.15;;;2.80;99.90;;;;;;2604771;46;20868;31
2023/02/01 20:57:45;;;;;;;8.85;3.22;;;2.80;99.90;;;;;;2603498;54;20026;31
2023/02/01 21:00:21;;;;;;;9.73;3.45;;;2.80;99.90;;;;;;2603195;54;20085;31
2023/02/01 21:02:59;;;;;;;5.83;2.47;;;2.80;99.90;;;;;;2602565;54;21207;31
2023/02/01 21:05:43;;;;;;;6.75;2.25;;;2.90;99.90;;;;;;2603064;54;21113;31
2023/02/01 21:08:22;;;;;;;7.90;2.50;;;2.90;99.90;;;;;;2603413;54;20031;31
2023/02/01 21:11:26;;;;;;;6.30;2.40;;;2.80;99.90;;;;;;2603386;54;20027;31
2023/02/01 21:16:42;;;;;;;4.10;1.70;;;2.80;99.90;;;;;;2603138;54;20033;31
2023/02/01 21:19:23;;;;;;;8.48;2.72;;;2.80;99.90;;;;;;2772328;31;20921;31
2023/02/01 21:22:17;;;;;;;10.18;3.00;;;2.80;99.90;;;;;;2603326;54;20856;31
2023/02/01 21:27:50;;;;;;;3.37;1.70;;;2.80;99.90;;;;;;2603280;54;20748;31
2023/02/01 21:30:29;;;;;;;4.75;2.20;;;2.80;99.90;;;;;;2603164;54;20052;31
2023/02/01 21:33:09;;;;;;;5.47;2.63;;;2.70;99.90;;;;;;2621342;46;20036;31
2023/02/01 21:35:59;;;;;;;6.20;2.67;;;2.70;99.90;;;;;;2603181;54;20057;31
2023/02/01 21:38:45;;;;;;;4.40;2.10;;;2.70;99.90;;;;;;2602761;54;20061;31
2023/02/01 21:44:17;;;;;;;6.78;2.75;;;2.70;99.90;;;;;;2603097;54;20096;31
2023/02/01 21:46:57;;;;;;;6.85;3.10;;;2.70;99.90;;;;;;2602884;54;20889;31
2023/02/01 21:49:39;;;;;;;3.15;1.70;;;2.70;99.90;;;;;;2701796;39;22432;31
2023/02/01 21:52:24;;;;;;;1.75;1.10;;;2.70;99.90;;;;;;2621564;46;19935;31
2023/02/01 21:55:06;;;;;;;2.50;0.93;;;2.60;99.90;;;;;;2621594;46;20042;31
2023/02/01 21:57:53;;;;;;;2.58;1.38;;;2.60;99.90;;;;;;2602855;54;20052;31
2023/02/01 22:00:37;;;;;;;5.10;1.40;;;2.60;99.90;;;;;;2603300;54;20901;31
2023/02/01 22:03:24;;;;;;;2.40;1.00;;;2.60;99.90;;;;;;2602973;54;20759;31
2023/02/01 22:06:03;;;;;;;6.00;2.80;;;2.50;99.90;;;;;;2603065;54;20027;31
2023/02/01 22:09:06;;;;;;;7.97;2.92;;;2.50;99.90;;;;;;2602880;54;20898;31
2023/02/01 22:14:45;;;;;;;9.55;3.10;;;2.60;99.90;;;;;;2603047;54;20851;31
2023/02/01 22:17:23;;;;;;;14.47;5.03;;;2.60;99.90;;;;;;2602876;54;20848;31
2023/02/01 22:20:04;;;;;;;11.65;3.67;;;2.60;99.90;;;;;;2602848;54;20258;31
2023/02/01 22:22:44;;;;;;;5.90;2.13;;;2.60;99.90;;;;;;2702023;39;20988;31
2023/02/01 22:25:36;;;;;;;6.05;2.83;;;2.60;99.90;;;;;;2621306;47;20026;31
2023/02/01 22:28:14;;;;;;;3.33;1.57;;;2.60;99.90;;;;;;2603149;54;20875;31
2023/02/01 22:31:15;;;;;;;6.72;2.30;;;2.60;99.90;;;;;;2620949;47;20241;31
2023/02/01 22:34:00;;;;;;;3.85;2.00;;;2.60;99.90;;;;;;2602898;54;20037;31
2023/02/01 22:36:39;;;;;;;3.40;1.73;;;2.60;99.90;;;;;;2603308;54;20895;31
2023/02/01 22:39:17;;;;;;;6.50;2.63;;;2.60;99.90;;;;;;2603604;54;21351;31
2023/02/01 22:41:57;;;;;;;4.90;1.90;;;2.60;99.90;;;;;;2622378;46;20057;31
2023/02/01 22:47:28;;;;;;;6.18;1.85;;;2.60;99.90;;;;;;2603513;54;20026;31
2023/02/01 22:50:09;;;;;;;6.18;2.05;;;2.70;99.90;;;;;;2603761;54;20964;31
2023/02/01 22:56:19;;;;;;;4.50;1.30;;;2.80;99.90;;;;;;2603854;54;20845;31
2023/02/01 22:59:28;;;;;;;7.40;2.10;;;2.80;99.90;;;;;;2603741;54;20096;31
2023/02/01 23:02:55;;;;;;;4.70;2.10;;;2.80;99.90;;;;;;2603707;54;20053;31
2023/02/01 23:08:42;;;;;;;9.70;2.50;;;2.90;99.90;;;;;;2607549;46;19989;31
2023/02/01 23:11:55;;;;;;;13.27;3.72;;;2.90;99.90;;;;;;2607444;46;20070;31
2023/02/01 23:21:07;;;;;;;13.77;3.67;;;3.00;99.90;;;;;;2603422;54;20084;31
2023/02/01 23:27:25;;;;;;;13.23;2.80;;;3.00;99.90;;;;;;2603719;54;20783;31
2023/02/01 23:33:23;;;;;;;9.47;2.20;;;3.10;99.90;;;;;;2720407;39;20571;31
2023/02/01 23:36:06;;;;;;;11.95;2.47;;;3.10;99.90;;;;;;2603530;54;20918;31
2023/02/01 23:38:52;;;;;;;9.65;1.80;;;3.10;99.90;;;;;;2603719;54;20030;31
2023/02/01 23:41:30;;;;;;;10.70;2.50;;;3.10;99.90;;;;;;2603697;54;20089;31
2023/02/01 23:44:12;;;;;;;13.80;2.53;;;3.10;99.90;;;;;;2615759;46;20855;31
2023/02/01 23:46:59;;;;;;;11.45;2.47;;;3.10;99.90;;;;;;2602657;54;20718;31
2023/02/01 23:49:53;;;;;;;12.27;1.50;;;3.10;99.90;;;;;;2603637;54;20030;31
2023/02/01 23:52:29;;;;;;;12.80;2.17;;;3.20;99.90;;;;;;2603476;54;20741;31
2023/02/01 23:55:16;;;;;;;10.05;1.92;;;3.20;99.90;;;;;;2603782;54;20027;31
2023/02/01 23:57:54;;;;;;;11.38;3.25;;;3.20;99.90;;;;;;2603691;54;20733;31
